Accueil
METAR-TAF:

METAR-TAF

Aéroports :

Baker Municipal Airport

Baker, Montana, États-Unis

latitude: 46-20-52N, longitude: 104-15-27W, altitude: 905 m

Observation

Le bulletin a été fait il y a 59 minutes, à 14:51 UTC
Vent 4 kt de nord-ouest
Température -1°C
Humidité 100%
Pression 1022 hPa
Visibilité: 16.1 km
Ciel clair

METAR: KBHK 141451Z AUTO 31004KT 10SM CLR M01/M01 A3017 RMK AO2 SLP244 I3001 T10061011 51003

Heure: 08:50 (15:50 UTC)


TAF: absent

Observations et prévisions météorologiques de plus de 4000 aéroports (messages METAR et TAF).

Les stations disponibles sont représentées par des disques jaunes et rouges sur la carte.

Passer la souris dessus pour voir le nom de la station.

Cliquer dessus pour voir les observations et prévisions météorologiques.

Pour changer de carte: cliquez sur les boutons verts avec une croix noire pour zoomer, sur le bouton vert avec un tiret pour effectuer un zoom arrière, ou sur les flèches vertes pour les cartes adjacentes.


METAR-TAF: